createdAt,value
2022-12-18T00:01:34.235Z,29.80
2022-12-18T00:04:05.921Z,29.70
2022-12-18T00:06:34.738Z,34.65
2022-12-18T00:09:05.115Z,32.95
2022-12-18T00:11:33.862Z,31.58
2022-12-18T00:14:02.274Z,36.30
2022-12-18T00:16:34.028Z,32.10
2022-12-18T00:19:02.363Z,30.77
2022-12-18T00:21:32.509Z,28.48
2022-12-18T00:24:00.881Z,30.05
2022-12-18T00:26:32.613Z,29.97
2022-12-18T00:29:05.297Z,33.72
2022-12-18T00:31:34.215Z,27.90
2022-12-18T00:34:03.137Z,34.15
2022-12-18T00:36:34.256Z,30.35
2022-12-18T00:39:03.951Z,31.95
2022-12-18T00:41:47.323Z,31.65
2022-12-18T00:44:17.416Z,28.45
2022-12-18T00:46:46.899Z,35.63
2022-12-18T00:49:15.353Z,29.10
2022-12-18T00:51:43.536Z,32.63
2022-12-18T00:54:12.872Z,32.35
2022-12-18T00:56:50.062Z,30.00
2022-12-18T00:59:19.705Z,29.85
2022-12-18T01:01:48.000Z,33.13
2022-12-18T01:04:16.893Z,31.48
2022-12-18T01:06:47.237Z,29.85
2022-12-18T01:09:15.445Z,30.50
2022-12-18T01:11:44.746Z,31.95
2022-12-18T01:16:40.497Z,29.98
2022-12-18T01:19:08.725Z,31.85
2022-12-18T01:21:36.648Z,31.38
2022-12-18T01:24:06.893Z,29.75
2022-12-18T01:26:35.297Z,33.47
2022-12-18T01:29:04.651Z,36.35
2022-12-18T01:31:34.940Z,36.60
2022-12-18T01:34:04.869Z,33.42
2022-12-18T01:36:34.289Z,33.35
2022-12-18T01:39:03.956Z,30.80
2022-12-18T01:42:02.444Z,29.77
2022-12-18T01:45:01.602Z,31.40
2022-12-18T01:50:04.510Z,31.90
2022-12-18T01:52:34.923Z,32.97
2022-12-18T01:55:05.770Z,34.47
2022-12-18T01:57:34.183Z,30.50
2022-12-18T02:00:12.192Z,30.23
2022-12-18T02:02:43.867Z,31.77
2022-12-18T02:05:17.080Z,28.77
2022-12-18T02:07:52.004Z,29.80
2022-12-18T02:10:29.223Z,30.98
2022-12-18T02:13:04.895Z,30.67
2022-12-18T02:15:41.501Z,31.00
2022-12-18T02:18:14.282Z,33.25
2022-12-18T02:20:49.214Z,30.08
2022-12-18T02:23:35.749Z,34.00
2022-12-18T02:26:22.649Z,33.78
2022-12-18T02:28:57.316Z,32.92
2022-12-18T02:31:30.797Z,30.80
2022-12-18T02:34:02.851Z,31.95
2022-12-18T02:36:38.402Z,31.75
2022-12-18T02:39:09.544Z,30.52
2022-12-18T02:41:42.415Z,29.50
2022-12-18T02:44:13.026Z,33.67
2022-12-18T02:46:44.562Z,32.80
2022-12-18T02:49:28.311Z,34.25
2022-12-18T02:52:07.189Z,32.53
2022-12-18T02:54:51.451Z,31.80
2022-12-18T02:57:26.767Z,32.65
2022-12-18T03:00:04.074Z,30.50
2022-12-18T03:02:39.485Z,32.88
2022-12-18T03:05:13.972Z,32.40
2022-12-18T03:07:49.059Z,34.45
2022-12-18T03:10:22.093Z,34.95
2022-12-18T03:13:00.239Z,32.20
2022-12-18T03:15:32.881Z,31.02
2022-12-18T03:18:18.343Z,33.35
2022-12-18T03:20:50.051Z,35.58
2022-12-18T03:23:26.397Z,27.95
2022-12-18T03:26:07.171Z,29.50
2022-12-18T03:28:44.408Z,28.33
2022-12-18T03:31:14.499Z,30.08
2022-12-18T03:33:48.090Z,27.45
2022-12-18T03:36:17.387Z,28.83
2022-12-18T03:38:45.573Z,29.35
2022-12-18T03:41:21.767Z,30.85
2022-12-18T03:44:17.490Z,31.55
2022-12-18T03:46:57.010Z,28.20
2022-12-18T03:49:30.923Z,28.30
2022-12-18T03:52:06.144Z,30.95
2022-12-18T03:54:37.547Z,29.27
2022-12-18T03:57:17.801Z,30.95
2022-12-18T03:59:51.724Z,29.65
2022-12-18T04:02:24.305Z,29.27
2022-12-18T04:04:55.287Z,31.15
2022-12-18T04:07:25.957Z,30.17
2022-12-18T04:09:57.960Z,29.13
2022-12-18T04:12:27.371Z,29.52
2022-12-18T04:17:25.947Z,31.65
2022-12-18T04:19:56.775Z,30.48
2022-12-18T04:22:26.209Z,32.80
2022-12-18T04:24:59.738Z,32.67
2022-12-18T04:27:34.208Z,32.40
2022-12-18T04:30:03.689Z,28.98
2022-12-18T04:32:32.429Z,32.47
2022-12-18T04:35:02.093Z,33.58
2022-12-18T04:37:30.523Z,31.30
2022-12-18T04:39:58.530Z,33.33
2022-12-18T04:42:34.420Z,31.23
2022-12-18T04:45:03.995Z,34.60
2022-12-18T04:47:33.111Z,36.25
2022-12-18T04:50:01.097Z,35.33
2022-12-18T04:52:29.089Z,29.58
2022-12-18T04:54:59.992Z,33.63
2022-12-18T04:57:28.009Z,31.65
2022-12-18T04:59:56.399Z,32.60
2022-12-18T05:02:25.768Z,38.60
2022-12-18T05:04:53.817Z,34.28
2022-12-18T05:07:21.814Z,34.83
2022-12-18T05:09:49.849Z,31.98
2022-12-18T05:12:17.837Z,32.97
2022-12-18T05:14:45.738Z,33.75
2022-12-18T05:17:13.643Z,33.45
2022-12-18T05:19:43.017Z,30.90
2022-12-18T05:24:39.146Z,31.20
2022-12-18T05:27:07.122Z,39.33
2022-12-18T05:29:35.223Z,37.05
2022-12-18T05:32:03.174Z,41.22
2022-12-18T05:34:31.103Z,36.60
2022-12-18T05:37:00.387Z,36.78
2022-12-18T05:41:56.535Z,37.50
2022-12-18T05:44:24.676Z,34.83
2022-12-18T05:46:52.656Z,53.05
2022-12-18T05:49:20.633Z,56.60
2022-12-18T05:51:48.711Z,48.15
2022-12-18T05:54:18.068Z,44.20
2022-12-18T05:59:17.050Z,42.50
2022-12-18T06:01:45.239Z,41.20
2022-12-18T06:04:13.365Z,40.08
2022-12-18T06:06:41.447Z,39.10
2022-12-18T06:09:10.559Z,42.85
2022-12-18T06:11:40.450Z,37.08
2022-12-18T06:14:09.343Z,36.20
2022-12-18T06:16:37.402Z,39.05
2022-12-18T06:19:07.509Z,42.17
2022-12-18T06:21:36.082Z,42.28
2022-12-18T06:24:04.356Z,44.42
2022-12-18T06:26:32.310Z,47.47
2022-12-18T06:29:01.697Z,52.95
2022-12-18T06:31:29.690Z,59.83
2022-12-18T06:33:58.743Z,59.72
2022-12-18T06:36:26.731Z,61.60
2022-12-18T06:38:54.697Z,57.17
2022-12-18T06:41:23.475Z,46.92
2022-12-18T06:43:54.626Z,48.88
2022-12-18T06:46:27.898Z,45.35
2022-12-18T06:48:55.854Z,39.20
2022-12-18T06:51:25.139Z,43.60
2022-12-18T06:56:21.339Z,40.72
2022-12-18T06:58:52.119Z,36.42
2022-12-18T07:01:20.298Z,41.85
2022-12-18T07:03:54.014Z,41.80
2022-12-18T07:06:24.227Z,41.72
2022-12-18T07:08:53.167Z,38.92
2022-12-18T07:11:21.406Z,37.53
2022-12-18T07:13:50.057Z,35.10
2022-12-18T07:16:24.801Z,38.95
2022-12-18T07:18:56.508Z,35.47
2022-12-18T07:21:26.152Z,40.75
2022-12-18T07:23:54.271Z,35.65
2022-12-18T07:26:23.479Z,37.42
2022-12-18T07:28:51.907Z,37.38
2022-12-18T07:31:22.910Z,34.20
2022-12-18T07:33:53.233Z,36.80
2022-12-18T07:36:25.358Z,35.72
2022-12-18T07:38:54.063Z,37.60
2022-12-18T07:41:22.926Z,36.35
2022-12-18T07:43:50.988Z,36.20
2022-12-18T07:46:20.158Z,35.45
2022-12-18T07:48:49.801Z,36.70
2022-12-18T07:51:18.763Z,36.28
2022-12-18T07:53:49.614Z,37.67
2022-12-18T07:56:29.409Z,36.13
2022-12-18T07:58:58.558Z,35.97
2022-12-18T08:01:26.797Z,39.35
2022-12-18T08:03:55.050Z,38.25
2022-12-18T08:06:25.117Z,37.28
2022-12-18T08:08:55.752Z,37.47
2022-12-18T08:11:25.491Z,35.63
2022-12-18T08:13:53.573Z,37.35
2022-12-18T08:16:22.459Z,39.75
2022-12-18T08:18:51.316Z,40.28
2022-12-18T08:21:22.156Z,39.83
2022-12-18T08:23:51.505Z,38.35
2022-12-18T08:26:22.100Z,35.33
2022-12-18T08:28:50.896Z,43.10
2022-12-18T08:31:19.387Z,40.17
2022-12-18T08:33:47.629Z,33.78
2022-12-18T08:36:15.594Z,37.92
2022-12-18T08:38:43.584Z,36.63
2022-12-18T08:41:13.896Z,38.88
2022-12-18T08:44:00.885Z,37.58
2022-12-18T08:46:35.254Z,33.35
2022-12-18T08:49:03.381Z,38.53
2022-12-18T08:51:32.053Z,35.97
2022-12-18T08:54:00.069Z,34.53
2022-12-18T08:56:28.062Z,38.33
2022-12-18T08:58:57.681Z,39.65
2022-12-18T09:01:26.265Z,32.72
2022-12-18T09:03:54.333Z,34.70
2022-12-18T09:06:23.951Z,33.60
2022-12-18T09:08:52.175Z,37.55
2022-12-18T09:11:22.910Z,36.47
2022-12-18T09:13:51.678Z,35.13
2022-12-18T09:16:24.970Z,35.88
2022-12-18T09:19:00.215Z,36.28
2022-12-18T09:21:30.157Z,38.00
2022-12-18T09:23:58.446Z,33.15
2022-12-18T09:26:28.383Z,34.03
2022-12-18T09:28:56.912Z,35.55
2022-12-18T09:31:26.760Z,37.80
2022-12-18T09:33:56.691Z,38.45
2022-12-18T09:36:24.707Z,38.50
2022-12-18T09:38:52.630Z,33.75
2022-12-18T09:41:39.350Z,33.97
2022-12-18T09:44:16.072Z,40.85
2022-12-18T09:46:49.758Z,31.95
2022-12-18T09:49:22.206Z,34.03
2022-12-18T09:51:54.770Z,36.17
2022-12-18T09:54:27.861Z,34.90
2022-12-18T09:56:56.339Z,38.33
2022-12-18T09:59:27.688Z,39.07
2022-12-18T10:01:58.412Z,35.13
2022-12-18T10:04:27.476Z,35.60
2022-12-18T10:07:09.005Z,39.42
2022-12-18T10:09:45.632Z,37.00
2022-12-18T10:12:23.561Z,39.55
2022-12-18T10:15:04.578Z,39.05
2022-12-18T10:17:44.544Z,38.28
2022-12-18T10:20:18.187Z,36.90
2022-12-18T10:22:55.555Z,44.05
2022-12-18T10:25:26.413Z,38.53
2022-12-18T10:27:57.936Z,36.08
2022-12-18T10:30:27.531Z,39.25
2022-12-18T10:33:02.427Z,39.67
2022-12-18T10:35:30.706Z,40.03
2022-12-18T10:38:07.532Z,40.90
2022-12-18T10:40:50.273Z,40.55
2022-12-18T10:43:23.883Z,38.13
2022-12-18T10:46:04.558Z,42.00
2022-12-18T10:48:35.343Z,37.63
2022-12-18T10:51:13.103Z,38.72
2022-12-18T10:53:44.100Z,37.30
2022-12-18T10:56:12.784Z,38.28
2022-12-18T10:58:41.804Z,36.47
2022-12-18T11:01:12.639Z,40.50
2022-12-18T11:03:44.270Z,35.55
2022-12-18T11:06:15.143Z,46.45
2022-12-18T11:08:45.015Z,40.03
2022-12-18T11:11:23.850Z,40.15
2022-12-18T11:14:01.005Z,38.42
2022-12-18T11:16:31.887Z,45.78
2022-12-18T11:19:17.322Z,39.53
2022-12-18T11:21:45.444Z,37.50
2022-12-18T11:24:22.901Z,41.33
2022-12-18T11:26:54.978Z,37.80
2022-12-18T11:29:34.342Z,42.05
2022-12-18T11:32:26.765Z,40.95
2022-12-18T11:35:04.270Z,40.65
2022-12-18T11:37:34.983Z,41.90
2022-12-18T11:40:09.243Z,36.50
2022-12-18T11:42:43.642Z,39.08
2022-12-18T11:45:26.810Z,40.83
2022-12-18T11:48:01.435Z,39.85
2022-12-18T11:50:40.378Z,35.53
2022-12-18T11:53:13.437Z,41.35
2022-12-18T11:55:48.660Z,39.05
2022-12-18T11:58:31.719Z,37.38
2022-12-18T12:01:15.450Z,36.85
2022-12-18T12:04:01.316Z,43.80
2022-12-18T12:06:38.575Z,34.78
2022-12-18T12:09:15.741Z,39.88
2022-12-18T12:11:54.096Z,38.58
2022-12-18T12:14:45.534Z,40.00
2022-12-18T12:17:20.163Z,42.33
2022-12-18T12:19:55.348Z,40.22
2022-12-18T12:22:32.976Z,42.50
2022-12-18T12:25:19.052Z,42.40
2022-12-18T12:27:58.170Z,40.33
2022-12-18T12:30:34.940Z,43.10
2022-12-18T12:33:18.687Z,40.50
2022-12-18T12:35:54.950Z,41.72
2022-12-18T12:38:29.401Z,41.67
2022-12-18T12:41:04.011Z,42.90
2022-12-18T12:43:47.974Z,43.33
2022-12-18T12:46:20.037Z,41.78
2022-12-18T12:48:50.479Z,40.70
2022-12-18T12:51:23.320Z,46.22
2022-12-18T12:53:55.445Z,45.13
2022-12-18T12:56:24.423Z,47.45
2022-12-18T12:59:01.596Z,41.47
2022-12-18T13:01:38.120Z,45.10
2022-12-18T13:04:20.027Z,39.30
2022-12-18T13:06:55.665Z,42.05
2022-12-18T13:09:25.082Z,44.53
2022-12-18T13:12:10.647Z,40.45
2022-12-18T13:14:41.004Z,46.03
2022-12-18T13:17:32.157Z,46.55
2022-12-18T13:20:13.294Z,47.25
2022-12-18T13:22:47.039Z,47.88
2022-12-18T13:25:37.815Z,47.47
2022-12-18T13:28:12.602Z,43.53
2022-12-18T13:30:49.426Z,44.72
2022-12-18T13:34:02.195Z,45.95
2022-12-18T13:36:34.119Z,47.42
2022-12-18T13:39:32.756Z,45.20
2022-12-18T13:42:57.418Z,41.28
2022-12-18T13:45:46.885Z,46.92
2022-12-18T13:48:26.172Z,48.83
2022-12-18T13:51:01.061Z,45.65
2022-12-18T13:53:32.593Z,47.38
2022-12-18T13:56:01.214Z,47.67
2022-12-18T13:58:29.352Z,47.95
2022-12-18T14:01:00.315Z,45.90
2022-12-18T14:03:30.257Z,45.88
2022-12-18T14:06:03.339Z,47.15
2022-12-18T14:08:37.849Z,44.83
2022-12-18T14:11:08.257Z,45.92
2022-12-18T14:13:41.757Z,49.70
2022-12-18T14:16:16.710Z,45.95
2022-12-18T14:18:48.708Z,45.08
2022-12-18T14:21:22.922Z,51.58
2022-12-18T14:23:51.306Z,47.83
2022-12-18T14:26:29.825Z,51.85
2022-12-18T14:28:58.530Z,50.05
2022-12-18T14:31:30.377Z,52.50
2022-12-18T14:33:58.745Z,50.97
2022-12-18T14:36:28.704Z,51.00
2022-12-18T14:38:57.540Z,47.50
2022-12-18T14:41:26.811Z,47.72
2022-12-18T14:46:36.596Z,50.67
2022-12-18T14:49:06.869Z,50.72
2022-12-18T14:51:36.190Z,49.97
2022-12-18T14:54:08.927Z,46.83
2022-12-18T14:56:45.341Z,49.35
2022-12-18T14:59:23.759Z,53.10
2022-12-18T15:02:01.490Z,50.78
2022-12-18T15:04:32.988Z,48.78
2022-12-18T15:07:12.254Z,48.95
2022-12-18T15:12:26.701Z,52.53
2022-12-18T15:14:54.888Z,49.38
2022-12-18T15:17:26.902Z,49.95
2022-12-18T15:20:00.936Z,50.08
2022-12-18T15:22:31.357Z,48.22
2022-12-18T15:25:00.644Z,57.65
2022-12-18T15:30:20.850Z,56.08
2022-12-18T15:32:51.058Z,53.50
2022-12-18T15:35:21.477Z,55.60
2022-12-18T15:37:49.940Z,50.65
2022-12-18T15:40:19.568Z,47.28
2022-12-18T15:43:06.802Z,53.65
2022-12-18T15:45:35.258Z,54.00
2022-12-18T15:48:20.716Z,58.03
2022-12-18T15:50:48.814Z,62.22
2022-12-18T15:53:16.837Z,62.58
2022-12-18T15:56:04.506Z,61.45
2022-12-18T15:58:33.810Z,66.93
2022-12-18T16:01:02.675Z,60.38
2022-12-18T16:03:32.690Z,61.63
2022-12-18T16:06:03.001Z,55.60
2022-12-18T16:08:32.251Z,55.40
2022-12-18T16:11:00.591Z,65.93
2022-12-18T16:13:28.545Z,54.90
2022-12-18T16:15:56.598Z,58.60
2022-12-18T16:18:24.826Z,50.90
2022-12-18T16:20:54.560Z,51.60
2022-12-18T16:23:22.487Z,55.70
2022-12-18T16:25:50.353Z,59.60
2022-12-18T16:28:18.302Z,55.22
2022-12-18T16:30:46.240Z,67.15
2022-12-18T16:33:14.153Z,59.58
2022-12-18T16:35:42.519Z,63.00
2022-12-18T16:38:12.201Z,59.40
2022-12-18T16:43:30.043Z,54.22
2022-12-18T16:46:00.673Z,53.72
2022-12-18T16:48:28.623Z,59.45
2022-12-18T16:51:03.604Z,61.92
2022-12-18T16:53:34.391Z,58.05
2022-12-18T16:56:03.139Z,56.90
2022-12-18T16:58:32.463Z,58.85
2022-12-18T17:01:00.471Z,58.13
2022-12-18T17:03:28.475Z,58.67
2022-12-18T17:05:56.455Z,57.40
2022-12-18T17:08:24.395Z,59.58
2022-12-18T17:10:53.667Z,60.42
2022-12-18T17:15:54.198Z,63.33
2022-12-18T17:18:22.638Z,62.63
2022-12-18T17:20:50.645Z,59.20
2022-12-18T17:23:18.581Z,63.28
2022-12-18T17:25:46.590Z,64.25
2022-12-18T17:28:15.919Z,67.85
2022-12-18T17:33:11.722Z,60.90
2022-12-18T17:35:39.911Z,59.28
2022-12-18T17:38:09.130Z,63.38
2022-12-18T17:40:41.802Z,56.45
2022-12-18T17:43:13.051Z,65.63
2022-12-18T17:45:42.558Z,68.88
2022-12-18T17:48:10.967Z,60.17
2022-12-18T17:50:39.394Z,68.40
2022-12-18T17:53:07.356Z,55.30
2022-12-18T17:55:35.299Z,62.10
2022-12-18T17:58:03.418Z,65.78
2022-12-18T18:00:31.657Z,61.63
2022-12-18T18:03:01.475Z,57.78
2022-12-18T18:05:29.510Z,57.03
2022-12-18T18:07:57.465Z,57.30
2022-12-18T18:10:25.384Z,57.78
2022-12-18T18:13:10.785Z,61.55
2022-12-18T18:15:40.779Z,61.70
2022-12-18T18:18:10.661Z,63.28
2022-12-18T18:20:41.048Z,66.95
2022-12-18T18:23:10.390Z,58.42
2022-12-18T18:25:38.467Z,64.55
2022-12-18T18:28:06.586Z,54.40
2022-12-18T18:30:34.656Z,56.17
2022-12-18T18:33:04.649Z,55.30
2022-12-18T18:35:53.780Z,55.70
2022-12-18T18:38:22.476Z,55.67
2022-12-18T18:40:50.445Z,60.92
2022-12-18T18:43:19.583Z,60.83
2022-12-18T18:45:50.443Z,58.97
2022-12-18T18:48:18.836Z,60.13
2022-12-18T18:50:57.549Z,64.97
2022-12-18T18:53:25.513Z,58.72
2022-12-18T18:56:26.158Z,63.63
2022-12-18T18:58:41.955Z,65.65
2022-12-18T19:01:13.087Z,61.30
2022-12-18T19:03:41.473Z,68.20
2022-12-18T19:06:15.200Z,57.67
2022-12-18T19:08:44.289Z,64.65
2022-12-18T19:11:26.681Z,63.35
2022-12-18T19:13:56.363Z,58.35
2022-12-18T19:16:27.793Z,58.63
2022-12-18T19:19:01.407Z,61.45
2022-12-18T19:21:34.273Z,61.20
2022-12-18T19:24:03.498Z,62.40
2022-12-18T19:26:31.740Z,63.65
2022-12-18T19:29:02.545Z,65.27
2022-12-18T19:31:35.228Z,61.15
2022-12-18T19:34:05.121Z,59.25
2022-12-18T19:36:36.144Z,69.43
2022-12-18T19:39:10.288Z,65.85
2022-12-18T19:41:38.419Z,65.82
2022-12-18T19:44:08.246Z,71.50
2022-12-18T19:46:41.660Z,73.00
2022-12-18T19:49:10.375Z,77.45
2022-12-18T19:51:42.543Z,80.82
2022-12-18T19:54:16.184Z,86.03
2022-12-18T19:56:45.063Z,82.15
2022-12-18T19:59:13.140Z,86.95
2022-12-18T20:01:41.383Z,85.20
2022-12-18T20:04:09.574Z,81.47
2022-12-18T20:06:49.373Z,76.88
2022-12-18T20:09:18.173Z,80.53
2022-12-18T20:11:47.204Z,74.82
2022-12-18T20:14:19.688Z,75.13
2022-12-18T20:16:51.386Z,76.57
2022-12-18T20:19:19.761Z,77.80
2022-12-18T20:21:50.016Z,73.47
2022-12-18T20:24:18.013Z,78.18
2022-12-18T20:26:46.215Z,76.85
2022-12-18T20:29:14.100Z,74.15
2022-12-18T20:31:42.290Z,80.93
2022-12-18T20:34:10.388Z,72.72
2022-12-18T20:36:38.834Z,76.00
2022-12-18T20:39:10.983Z,78.80
2022-12-18T20:41:40.331Z,70.70
2022-12-18T20:44:21.934Z,76.53
2022-12-18T20:46:53.752Z,75.13
2022-12-18T20:49:22.174Z,76.95
2022-12-18T20:51:53.527Z,70.88
2022-12-18T20:54:24.169Z,72.30
2022-12-18T20:56:52.246Z,71.53
2022-12-18T20:59:20.341Z,67.90
2022-12-18T21:01:49.503Z,70.53
2022-12-18T21:06:51.458Z,72.22
2022-12-18T21:09:22.621Z,76.70
2022-12-18T21:12:08.935Z,80.54
2022-12-18T21:14:40.370Z,79.90
2022-12-18T21:17:08.451Z,79.75
2022-12-18T21:19:36.835Z,70.65
2022-12-18T21:22:05.585Z,78.07
2022-12-18T21:24:35.098Z,74.68
2022-12-18T21:29:31.774Z,66.05
2022-12-18T21:32:00.729Z,70.65
2022-12-18T21:34:30.967Z,68.82
2022-12-18T21:37:01.254Z,63.92
2022-12-18T21:39:30.675Z,67.32
2022-12-18T21:44:48.046Z,66.93
2022-12-18T21:47:23.036Z,64.60
2022-12-18T21:49:53.103Z,74.03
2022-12-18T21:52:27.259Z,69.88
2022-12-18T21:55:06.568Z,68.05
2022-12-18T21:57:39.225Z,71.20
2022-12-18T22:00:08.862Z,60.00
2022-12-18T22:02:43.044Z,65.18
2022-12-18T22:05:11.217Z,66.23
2022-12-18T22:07:39.865Z,68.68
2022-12-18T22:10:09.118Z,69.03
2022-12-18T22:12:44.172Z,63.00
2022-12-18T22:15:21.320Z,69.32
2022-12-18T22:17:50.214Z,69.22
2022-12-18T22:20:18.229Z,72.65
2022-12-18T22:22:48.227Z,67.38
2022-12-18T22:25:16.251Z,73.53
2022-12-18T22:28:06.035Z,64.28
2022-12-18T22:30:33.211Z,64.25
2022-12-18T22:33:01.766Z,70.50
2022-12-18T22:35:29.744Z,68.53
2022-12-18T22:37:59.387Z,73.20
2022-12-18T22:40:27.871Z,70.57
2022-12-18T22:42:57.760Z,72.53
2022-12-18T22:45:26.599Z,73.18
2022-12-18T22:47:54.798Z,74.55
2022-12-18T22:50:22.887Z,76.65
2022-12-18T22:52:50.872Z,72.77
2022-12-18T22:55:18.863Z,67.35
2022-12-18T22:57:49.033Z,74.75
2022-12-18T23:00:23.907Z,73.30
2022-12-18T23:02:59.488Z,71.82
2022-12-18T23:05:30.004Z,74.03
2022-12-18T23:07:58.054Z,71.93
2022-12-18T23:10:26.273Z,78.85
2022-12-18T23:12:54.309Z,73.40
2022-12-18T23:15:28.175Z,73.90
2022-12-18T23:17:58.709Z,72.57
2022-12-18T23:20:27.126Z,76.75
2022-12-18T23:22:55.160Z,76.23
2022-12-18T23:25:23.109Z,72.75
2022-12-18T23:27:51.136Z,70.88
2022-12-18T23:30:19.275Z,70.30
2022-12-18T23:32:48.639Z,74.10
2022-12-18T23:38:00.919Z,74.65
2022-12-18T23:40:30.428Z,80.82
2022-12-18T23:45:26.136Z,73.38
2022-12-18T23:47:55.422Z,79.38
2022-12-18T23:53:04.997Z,75.72
2022-12-18T23:55:38.517Z,68.85
2022-12-18T23:58:06.620Z,69.68
